sensor_id;sensor_type;location;lat;lon;timestamp;temperature;humidity
34829;DHT22;21042;47.620;12.188;2023-07-29T00:00:11;16.30;99.90
34829;DHT22;21042;47.620;12.188;2023-07-29T00:02:40;16.30;99.90
34829;DHT22;21042;47.620;12.188;2023-07-29T00:05:07;16.30;99.90
34829;DHT22;21042;47.620;12.188;2023-07-29T00:07:34;16.30;99.90
34829;DHT22;21042;47.620;12.188;2023-07-29T00:10:01;16.30;99.90
34829;DHT22;21042;47.620;12.188;2023-07-29T00:12:28;16.30;99.90
34829;DHT22;21042;47.620;12.188;2023-07-29T00:14:54;16.40;99.90
34829;DHT22;21042;47.620;12.188;2023-07-29T00:17:21;16.30;99.90
34829;DHT22;21042;47.620;12.188;2023-07-29T00:19:48;16.50;99.90
34829;DHT22;21042;47.620;12.188;2023-07-29T00:22:15;16.50;99.90
34829;DHT22;21042;47.620;12.188;2023-07-29T00:24:41;16.50;99.90
34829;DHT22;21042;47.620;12.188;2023-07-29T00:27:08;16.60;99.90
34829;DHT22;21042;47.620;12.188;2023-07-29T00:29:35;16.50;99.90
34829;DHT22;21042;47.620;12.188;2023-07-29T00:32:02;16.40;99.90
34829;DHT22;21042;47.620;12.188;2023-07-29T00:34:29;16.30;99.90
34829;DHT22;21042;47.620;12.188;2023-07-29T00:36:57;16.20;99.90
34829;DHT22;21042;47.620;12.188;2023-07-29T00:39:24;16.20;99.90
34829;DHT22;21042;47.620;12.188;2023-07-29T00:41:51;16.10;99.90
34829;DHT22;21042;47.620;12.188;2023-07-29T00:44:18;16.20;99.90
34829;DHT22;21042;47.620;12.188;2023-07-29T00:46:45;16.10;99.90
34829;DHT22;21042;47.620;12.188;2023-07-29T00:49:12;16.20;99.90
34829;DHT22;21042;47.620;12.188;2023-07-29T00:51:41;16.20;99.90
34829;DHT22;21042;47.620;12.188;2023-07-29T00:54:07;16.30;99.90
34829;DHT22;21042;47.620;12.188;2023-07-29T00:56:34;16.30;99.90
34829;DHT22;21042;47.620;12.188;2023-07-29T00:59:03;16.20;99.90
34829;DHT22;21042;47.620;12.188;2023-07-29T01:01:31;16.20;99.90
34829;DHT22;21042;47.620;12.188;2023-07-29T01:03:58;16.20;99.90
34829;DHT22;21042;47.620;12.188;2023-07-29T01:06:34;16.20;99.90
34829;DHT22;21042;47.620;12.188;2023-07-29T01:09:18;16.20;99.90
34829;DHT22;21042;47.620;12.188;2023-07-29T01:14:41;16.20;99.90
34829;DHT22;21042;47.620;12.188;2023-07-29T01:20:01;16.10;99.90
34829;DHT22;21042;47.620;12.188;2023-07-29T01:22:36;16.00;99.90
34829;DHT22;21042;47.620;12.188;2023-07-29T01:25:03;16.20;99.90
34829;DHT22;21042;47.620;12.188;2023-07-29T01:27:30;16.10;99.90
34829;DHT22;21042;47.620;12.188;2023-07-29T01:29:58;16.10;99.90
34829;DHT22;21042;47.620;12.188;2023-07-29T01:35:05;16.10;99.90
34829;DHT22;21042;47.620;12.188;2023-07-29T01:37:34;16.10;99.90
34829;DHT22;21042;47.620;12.188;2023-07-29T01:40:04;16.20;99.90
34829;DHT22;21042;47.620;12.188;2023-07-29T01:42:31;16.10;99.90
34829;DHT22;21042;47.620;12.188;2023-07-29T01:44:58;16.10;99.90
34829;DHT22;21042;47.620;12.188;2023-07-29T01:47:25;16.10;99.90
34829;DHT22;21042;47.620;12.188;2023-07-29T01:49:54;16.10;99.90
34829;DHT22;21042;47.620;12.188;2023-07-29T01:52:21;16.10;99.90
34829;DHT22;21042;47.620;12.188;2023-07-29T01:54:48;16.20;99.90
34829;DHT22;21042;47.620;12.188;2023-07-29T01:57:14;16.20;99.90
34829;DHT22;21042;47.620;12.188;2023-07-29T01:59:41;16.20;99.90
34829;DHT22;21042;47.620;12.188;2023-07-29T02:02:08;16.10;99.90
34829;DHT22;21042;47.620;12.188;2023-07-29T02:04:35;16.20;99.90
34829;DHT22;21042;47.620;12.188;2023-07-29T02:07:02;16.20;99.90
34829;DHT22;21042;47.620;12.188;2023-07-29T02:09:29;16.20;99.90
34829;DHT22;21042;47.620;12.188;2023-07-29T02:11:57;16.20;99.90
34829;DHT22;21042;47.620;12.188;2023-07-29T02:14:24;16.20;99.90
34829;DHT22;21042;47.620;12.188;2023-07-29T02:16:51;16.20;99.90
34829;DHT22;21042;47.620;12.188;2023-07-29T02:19:18;16.20;99.90
34829;DHT22;21042;47.620;12.188;2023-07-29T02:21:44;16.30;99.90
34829;DHT22;21042;47.620;12.188;2023-07-29T02:24:11;16.20;99.90
34829;DHT22;21042;47.620;12.188;2023-07-29T02:26:38;16.20;99.90
34829;DHT22;21042;47.620;12.188;2023-07-29T02:29:05;16.20;99.90
34829;DHT22;21042;47.620;12.188;2023-07-29T02:31:32;16.10;99.90
34829;DHT22;21042;47.620;12.188;2023-07-29T02:33:59;16.00;99.90
34829;DHT22;21042;47.620;12.188;2023-07-29T02:36:25;16.10;99.90
34829;DHT22;21042;47.620;12.188;2023-07-29T02:38:52;16.10;99.90
34829;DHT22;21042;47.620;12.188;2023-07-29T02:41:19;16.10;99.90
34829;DHT22;21042;47.620;12.188;2023-07-29T02:43:50;16.10;99.90
34829;DHT22;21042;47.620;12.188;2023-07-29T02:46:17;16.10;99.90
34829;DHT22;21042;47.620;12.188;2023-07-29T02:48:44;16.10;99.90
34829;DHT22;21042;47.620;12.188;2023-07-29T02:51:11;16.10;99.90
34829;DHT22;21042;47.620;12.188;2023-07-29T02:53:38;16.10;99.90
34829;DHT22;21042;47.620;12.188;2023-07-29T02:56:05;16.10;99.90
34829;DHT22;21042;47.620;12.188;2023-07-29T02:58:37;16.10;99.90
34829;DHT22;21042;47.620;12.188;2023-07-29T03:01:04;16.00;99.90
34829;DHT22;21042;47.620;12.188;2023-07-29T03:03:32;16.00;99.90
34829;DHT22;21042;47.620;12.188;2023-07-29T03:06:03;16.00;99.90
34829;DHT22;21042;47.620;12.188;2023-07-29T03:08:30;16.00;99.90
34829;DHT22;21042;47.620;12.188;2023-07-29T03:10:57;15.90;99.90
34829;DHT22;21042;47.620;12.188;2023-07-29T03:13:24;16.00;99.90
34829;DHT22;21042;47.620;12.188;2023-07-29T03:15:51;16.00;99.90
34829;DHT22;21042;47.620;12.188;2023-07-29T03:18:18;16.00;99.90
34829;DHT22;21042;47.620;12.188;2023-07-29T03:20:45;15.90;99.90
34829;DHT22;21042;47.620;12.188;2023-07-29T03:23:12;15.90;99.90
34829;DHT22;21042;47.620;12.188;2023-07-29T03:25:39;15.90;99.90
34829;DHT22;21042;47.620;12.188;2023-07-29T03:28:05;16.20;99.90
34829;DHT22;21042;47.620;12.188;2023-07-29T03:30:32;15.90;99.90
34829;DHT22;21042;47.620;12.188;2023-07-29T03:32:59;15.90;99.90
34829;DHT22;21042;47.620;12.188;2023-07-29T03:35:26;15.90;99.90
34829;DHT22;21042;47.620;12.188;2023-07-29T03:37:53;15.90;99.90
34829;DHT22;21042;47.620;12.188;2023-07-29T03:40:20;16.00;99.90
34829;DHT22;21042;47.620;12.188;2023-07-29T03:42:46;16.00;99.90
34829;DHT22;21042;47.620;12.188;2023-07-29T03:45:13;16.10;99.90
34829;DHT22;21042;47.620;12.188;2023-07-29T03:47:40;16.00;99.90
34829;DHT22;21042;47.620;12.188;2023-07-29T03:50:08;15.90;99.90
34829;DHT22;21042;47.620;12.188;2023-07-29T03:52:35;15.90;99.90
34829;DHT22;21042;47.620;12.188;2023-07-29T03:55:01;15.90;99.90
34829;DHT22;21042;47.620;12.188;2023-07-29T03:57:28;15.90;99.90
34829;DHT22;21042;47.620;12.188;2023-07-29T03:59:56;15.80;99.90
34829;DHT22;21042;47.620;12.188;2023-07-29T04:02:23;15.90;99.90
34829;DHT22;21042;47.620;12.188;2023-07-29T04:04:50;15.90;99.90
34829;DHT22;21042;47.620;12.188;2023-07-29T04:07:17;15.90;99.90
34829;DHT22;21042;47.620;12.188;2023-07-29T04:09:43;15.90;99.90
34829;DHT22;21042;47.620;12.188;2023-07-29T04:12:11;16.00;99.90
34829;DHT22;21042;47.620;12.188;2023-07-29T04:14:37;16.00;99.90
34829;DHT22;21042;47.620;12.188;2023-07-29T04:17:04;16.00;99.90
34829;DHT22;21042;47.620;12.188;2023-07-29T04:19:31;16.00;99.90
34829;DHT22;21042;47.620;12.188;2023-07-29T04:21:58;16.00;99.90
34829;DHT22;21042;47.620;12.188;2023-07-29T04:24:25;16.00;99.90
34829;DHT22;21042;47.620;12.188;2023-07-29T04:26:52;16.00;99.90
34829;DHT22;21042;47.620;12.188;2023-07-29T04:29:19;16.10;99.90
34829;DHT22;21042;47.620;12.188;2023-07-29T04:31:46;16.10;99.90
34829;DHT22;21042;47.620;12.188;2023-07-29T04:34:14;16.10;99.90
34829;DHT22;21042;47.620;12.188;2023-07-29T04:36:40;16.20;99.90
34829;DHT22;21042;47.620;12.188;2023-07-29T04:39:08;16.10;99.90
34829;DHT22;21042;47.620;12.188;2023-07-29T04:41:34;16.20;99.90
34829;DHT22;21042;47.620;12.188;2023-07-29T04:44:01;16.20;99.90
34829;DHT22;21042;47.620;12.188;2023-07-29T04:46:28;16.20;99.90
34829;DHT22;21042;47.620;12.188;2023-07-29T04:48:55;16.20;99.90
34829;DHT22;21042;47.620;12.188;2023-07-29T04:51:22;16.20;99.90
34829;DHT22;21042;47.620;12.188;2023-07-29T04:53:50;16.20;99.90
34829;DHT22;21042;47.620;12.188;2023-07-29T04:56:17;16.30;99.90
34829;DHT22;21042;47.620;12.188;2023-07-29T04:58:44;16.30;99.90
34829;DHT22;21042;47.620;12.188;2023-07-29T05:01:11;16.30;99.90
34829;DHT22;21042;47.620;12.188;2023-07-29T05:03:38;16.20;99.90
34829;DHT22;21042;47.620;12.188;2023-07-29T05:06:07;16.20;99.90
34829;DHT22;21042;47.620;12.188;2023-07-29T05:08:33;16.30;99.90
34829;DHT22;21042;47.620;12.188;2023-07-29T05:11:01;16.10;99.90
34829;DHT22;21042;47.620;12.188;2023-07-29T05:13:27;16.10;99.90
34829;DHT22;21042;47.620;12.188;2023-07-29T05:15:54;16.30;99.90
34829;DHT22;21042;47.620;12.188;2023-07-29T05:18:21;16.40;99.90
34829;DHT22;21042;47.620;12.188;2023-07-29T05:20:49;16.30;99.90
34829;DHT22;21042;47.620;12.188;2023-07-29T05:23:15;16.40;99.90
34829;DHT22;21042;47.620;12.188;2023-07-29T05:25:42;16.50;99.90
34829;DHT22;21042;47.620;12.188;2023-07-29T05:28:09;16.70;99.90
34829;DHT22;21042;47.620;12.188;2023-07-29T05:30:36;16.90;99.90
34829;DHT22;21042;47.620;12.188;2023-07-29T05:33:05;16.90;99.90
34829;DHT22;21042;47.620;12.188;2023-07-29T05:35:34;17.00;99.90
34829;DHT22;21042;47.620;12.188;2023-07-29T05:38:01;17.10;99.90
34829;DHT22;21042;47.620;12.188;2023-07-29T05:40:30;17.10;99.90
34829;DHT22;21042;47.620;12.188;2023-07-29T05:42:57;17.00;99.90
34829;DHT22;21042;47.620;12.188;2023-07-29T05:45:24;17.00;99.90
34829;DHT22;21042;47.620;12.188;2023-07-29T05:47:50;16.90;99.90
34829;DHT22;21042;47.620;12.188;2023-07-29T05:50:17;16.90;99.90
34829;DHT22;21042;47.620;12.188;2023-07-29T05:52:44;16.90;99.90
34829;DHT22;21042;47.620;12.188;2023-07-29T05:55:11;16.90;99.90
34829;DHT22;21042;47.620;12.188;2023-07-29T05:57:38;16.80;99.90
34829;DHT22;21042;47.620;12.188;2023-07-29T06:00:09;16.90;99.90
34829;DHT22;21042;47.620;12.188;2023-07-29T06:02:40;16.90;99.90
34829;DHT22;21042;47.620;12.188;2023-07-29T06:05:14;17.60;99.90
34829;DHT22;21042;47.620;12.188;2023-07-29T06:07:41;17.20;99.90
34829;DHT22;21042;47.620;12.188;2023-07-29T06:10:15;17.20;99.90
34829;DHT22;21042;47.620;12.188;2023-07-29T06:12:46;17.30;99.90
34829;DHT22;21042;47.620;12.188;2023-07-29T06:15:13;17.40;99.90
34829;DHT22;21042;47.620;12.188;2023-07-29T06:17:41;17.70;99.90
34829;DHT22;21042;47.620;12.188;2023-07-29T06:20:08;17.80;99.90
34829;DHT22;21042;47.620;12.188;2023-07-29T06:22:35;17.80;99.90
34829;DHT22;21042;47.620;12.188;2023-07-29T06:25:02;18.00;99.90
34829;DHT22;21042;47.620;12.188;2023-07-29T06:27:29;18.10;99.90
34829;DHT22;21042;47.620;12.188;2023-07-29T06:29:56;18.20;99.90
34829;DHT22;21042;47.620;12.188;2023-07-29T06:32:22;18.30;99.90
34829;DHT22;21042;47.620;12.188;2023-07-29T06:34:49;18.40;99.90
34829;DHT22;21042;47.620;12.188;2023-07-29T06:37:18;18.50;99.90
34829;DHT22;21042;47.620;12.188;2023-07-29T06:39:45;18.70;99.90
34829;DHT22;21042;47.620;12.188;2023-07-29T06:42:12;18.70;99.90
34829;DHT22;21042;47.620;12.188;2023-07-29T06:44:39;18.70;99.90
34829;DHT22;21042;47.620;12.188;2023-07-29T06:47:06;18.50;99.90
34829;DHT22;21042;47.620;12.188;2023-07-29T06:49:33;18.30;99.90
34829;DHT22;21042;47.620;12.188;2023-07-29T06:52:01;18.10;99.90
34829;DHT22;21042;47.620;12.188;2023-07-29T06:54:27;18.00;99.90
34829;DHT22;21042;47.620;12.188;2023-07-29T06:56:54;17.70;99.90
34829;DHT22;21042;47.620;12.188;2023-07-29T06:59:21;17.60;99.90
34829;DHT22;21042;47.620;12.188;2023-07-29T07:01:48;17.60;99.90
34829;DHT22;21042;47.620;12.188;2023-07-29T07:04:14;17.50;99.90
34829;DHT22;21042;47.620;12.188;2023-07-29T07:06:41;17.60;99.90
34829;DHT22;21042;47.620;12.188;2023-07-29T07:09:08;17.50;99.90
34829;DHT22;21042;47.620;12.188;2023-07-29T07:11:35;17.60;99.90
34829;DHT22;21042;47.620;12.188;2023-07-29T07:14:01;17.50;99.90
34829;DHT22;21042;47.620;12.188;2023-07-29T07:16:28;17.50;99.90
34829;DHT22;21042;47.620;12.188;2023-07-29T07:18:58;17.50;99.90
34829;DHT22;21042;47.620;12.188;2023-07-29T07:21:25;17.50;99.90
34829;DHT22;21042;47.620;12.188;2023-07-29T07:23:52;17.40;99.90
34829;DHT22;21042;47.620;12.188;2023-07-29T07:26:18;17.40;99.90
34829;DHT22;21042;47.620;12.188;2023-07-29T07:28:45;17.40;99.90
34829;DHT22;21042;47.620;12.188;2023-07-29T07:31:12;17.40;99.90
34829;DHT22;21042;47.620;12.188;2023-07-29T07:33:39;17.40;99.90
34829;DHT22;21042;47.620;12.188;2023-07-29T07:36:05;17.40;99.90
34829;DHT22;21042;47.620;12.188;2023-07-29T07:38:32;17.40;99.90
34829;DHT22;21042;47.620;12.188;2023-07-29T07:40:59;17.50;99.90
34829;DHT22;21042;47.620;12.188;2023-07-29T07:43:26;17.50;99.90
34829;DHT22;21042;47.620;12.188;2023-07-29T07:45:58;17.50;99.90
34829;DHT22;21042;47.620;12.188;2023-07-29T07:48:26;17.70;99.90
34829;DHT22;21042;47.620;12.188;2023-07-29T07:50:53;17.60;99.90
34829;DHT22;21042;47.620;12.188;2023-07-29T07:53:20;17.70;99.90
34829;DHT22;21042;47.620;12.188;2023-07-29T07:55:46;17.80;99.90
34829;DHT22;21042;47.620;12.188;2023-07-29T07:58:13;17.80;99.90
34829;DHT22;21042;47.620;12.188;2023-07-29T08:00:40;17.90;99.90
34829;DHT22;21042;47.620;12.188;2023-07-29T08:03:07;17.90;99.90
34829;DHT22;21042;47.620;12.188;2023-07-29T08:05:34;17.90;99.90
34829;DHT22;21042;47.620;12.188;2023-07-29T08:08:01;17.90;99.90
34829;DHT22;21042;47.620;12.188;2023-07-29T08:10:27;18.00;99.90
34829;DHT22;21042;47.620;12.188;2023-07-29T08:12:54;18.10;99.90
34829;DHT22;21042;47.620;12.188;2023-07-29T08:15:21;18.20;99.90
34829;DHT22;21042;47.620;12.188;2023-07-29T08:17:48;18.50;99.90
34829;DHT22;21042;47.620;12.188;2023-07-29T08:20:15;18.50;99.90
34829;DHT22;21042;47.620;12.188;2023-07-29T08:22:41;18.80;99.90
34829;DHT22;21042;47.620;12.188;2023-07-29T08:25:08;19.00;99.90
34829;DHT22;21042;47.620;12.188;2023-07-29T08:27:35;19.10;99.90
34829;DHT22;21042;47.620;12.188;2023-07-29T08:30:02;19.00;99.90
34829;DHT22;21042;47.620;12.188;2023-07-29T08:32:29;19.20;99.90
34829;DHT22;21042;47.620;12.188;2023-07-29T08:34:56;19.40;99.90
34829;DHT22;21042;47.620;12.188;2023-07-29T08:37:22;19.70;99.90
34829;DHT22;21042;47.620;12.188;2023-07-29T08:39:49;19.70;99.90
34829;DHT22;21042;47.620;12.188;2023-07-29T08:42:17;19.90;99.90
34829;DHT22;21042;47.620;12.188;2023-07-29T08:44:49;20.20;99.90
34829;DHT22;21042;47.620;12.188;2023-07-29T08:47:16;20.40;99.90
34829;DHT22;21042;47.620;12.188;2023-07-29T08:49:45;20.80;99.90
34829;DHT22;21042;47.620;12.188;2023-07-29T08:52:14;21.00;99.90
34829;DHT22;21042;47.620;12.188;2023-07-29T08:54:41;21.00;99.90
34829;DHT22;21042;47.620;12.188;2023-07-29T08:57:08;20.60;99.90
34829;DHT22;21042;47.620;12.188;2023-07-29T08:59:35;20.70;99.90
34829;DHT22;21042;47.620;12.188;2023-07-29T09:02:02;20.60;99.90
34829;DHT22;21042;47.620;12.188;2023-07-29T09:04:29;20.60;99.90
34829;DHT22;21042;47.620;12.188;2023-07-29T09:06:56;20.80;99.90
34829;DHT22;21042;47.620;12.188;2023-07-29T09:09:25;21.10;99.90
34829;DHT22;21042;47.620;12.188;2023-07-29T09:11:52;21.40;99.90
34829;DHT22;21042;47.620;12.188;2023-07-29T09:14:19;21.60;99.90
34829;DHT22;21042;47.620;12.188;2023-07-29T09:16:46;21.70;99.90
34829;DHT22;21042;47.620;12.188;2023-07-29T09:19:13;21.60;99.90
34829;DHT22;21042;47.620;12.188;2023-07-29T09:21:40;21.40;99.90
34829;DHT22;21042;47.620;12.188;2023-07-29T09:24:08;21.30;99.90
34829;DHT22;21042;47.620;12.188;2023-07-29T09:26:35;21.20;99.90
34829;DHT22;21042;47.620;12.188;2023-07-29T09:29:03;21.00;99.90
34829;DHT22;21042;47.620;12.188;2023-07-29T09:31:30;20.90;99.90
34829;DHT22;21042;47.620;12.188;2023-07-29T09:33:57;20.90;99.90
34829;DHT22;21042;47.620;12.188;2023-07-29T09:36:25;20.80;99.90
34829;DHT22;21042;47.620;12.188;2023-07-29T09:38:56;20.80;99.90
34829;DHT22;21042;47.620;12.188;2023-07-29T09:41:28;21.00;99.90
34829;DHT22;21042;47.620;12.188;2023-07-29T09:43:56;21.10;99.90
34829;DHT22;21042;47.620;12.188;2023-07-29T09:46:25;21.10;99.90
34829;DHT22;21042;47.620;12.188;2023-07-29T09:48:54;21.10;99.90
34829;DHT22;21042;47.620;12.188;2023-07-29T09:51:22;21.20;99.90
34829;DHT22;21042;47.620;12.188;2023-07-29T09:53:50;21.30;99.90
34829;DHT22;21042;47.620;12.188;2023-07-29T09:56:26;21.40;99.90
34829;DHT22;21042;47.620;12.188;2023-07-29T09:58:56;21.60;99.90
34829;DHT22;21042;47.620;12.188;2023-07-29T10:01:24;21.90;99.90
34829;DHT22;21042;47.620;12.188;2023-07-29T10:03:51;22.10;99.90
34829;DHT22;21042;47.620;12.188;2023-07-29T10:06:19;22.50;99.90
34829;DHT22;21042;47.620;12.188;2023-07-29T10:08:47;22.80;99.90
34829;DHT22;21042;47.620;12.188;2023-07-29T10:11:16;22.80;99.90
34829;DHT22;21042;47.620;12.188;2023-07-29T10:13:43;22.80;99.90
34829;DHT22;21042;47.620;12.188;2023-07-29T10:16:26;22.70;99.90
34829;DHT22;21042;47.620;12.188;2023-07-29T10:18:53;22.70;99.90
34829;DHT22;21042;47.620;12.188;2023-07-29T10:21:22;23.20;99.90
34829;DHT22;21042;47.620;12.188;2023-07-29T10:23:53;23.40;99.90
34829;DHT22;21042;47.620;12.188;2023-07-29T10:26:22;23.80;99.90
34829;DHT22;21042;47.620;12.188;2023-07-29T10:28:51;23.90;99.90
34829;DHT22;21042;47.620;12.188;2023-07-29T10:31:20;24.00;99.90
34829;DHT22;21042;47.620;12.188;2023-07-29T10:33:49;24.10;99.90
34829;DHT22;21042;47.620;12.188;2023-07-29T10:36:17;24.20;99.90
34829;DHT22;21042;47.620;12.188;2023-07-29T10:38:46;24.00;99.90
34829;DHT22;21042;47.620;12.188;2023-07-29T10:41:13;23.90;99.90
34829;DHT22;21042;47.620;12.188;2023-07-29T10:43:40;23.50;99.90
34829;DHT22;21042;47.620;12.188;2023-07-29T10:46:18;23.30;99.90
34829;DHT22;21042;47.620;12.188;2023-07-29T10:51:37;23.80;99.90
34829;DHT22;21042;47.620;12.188;2023-07-29T10:54:13;24.20;99.90
34829;DHT22;21042;47.620;12.188;2023-07-29T10:56:42;24.40;99.90
34829;DHT22;21042;47.620;12.188;2023-07-29T11:01:41;24.40;99.90
34829;DHT22;21042;47.620;12.188;2023-07-29T11:04:26;24.40;99.90
34829;DHT22;21042;47.620;12.188;2023-07-29T11:09:58;24.50;99.90
34829;DHT22;21042;47.620;12.188;2023-07-29T11:15:21;24.60;99.90
34829;DHT22;21042;47.620;12.188;2023-07-29T11:17:58;24.60;99.90
34829;DHT22;21042;47.620;12.188;2023-07-29T11:20:30;24.50;99.90
34829;DHT22;21042;47.620;12.188;2023-07-29T11:22:59;24.50;99.90
34829;DHT22;21042;47.620;12.188;2023-07-29T11:25:29;24.70;99.90
34829;DHT22;21042;47.620;12.188;2023-07-29T11:27:57;24.70;99.90
34829;DHT22;21042;47.620;12.188;2023-07-29T11:30:25;24.70;99.90
34829;DHT22;21042;47.620;12.188;2023-07-29T11:32:57;24.80;99.90
34829;DHT22;21042;47.620;12.188;2023-07-29T11:35:24;25.10;99.90
34829;DHT22;21042;47.620;12.188;2023-07-29T11:37:53;25.30;99.90
34829;DHT22;21042;47.620;12.188;2023-07-29T11:40:21;25.20;99.90
34829;DHT22;21042;47.620;12.188;2023-07-29T11:42:50;25.00;99.90
34829;DHT22;21042;47.620;12.188;2023-07-29T11:45:18;24.80;99.90
34829;DHT22;21042;47.620;12.188;2023-07-29T11:47:46;25.00;99.90
34829;DHT22;21042;47.620;12.188;2023-07-29T11:50:14;25.20;99.90
34829;DHT22;21042;47.620;12.188;2023-07-29T11:52:43;25.00;99.90
34829;DHT22;21042;47.620;12.188;2023-07-29T11:55:12;24.90;99.90
34829;DHT22;21042;47.620;12.188;2023-07-29T11:57:39;24.60;99.90
34829;DHT22;21042;47.620;12.188;2023-07-29T12:00:08;24.70;99.90
34829;DHT22;21042;47.620;12.188;2023-07-29T12:02:38;24.90;99.90
34829;DHT22;21042;47.620;12.188;2023-07-29T12:05:06;24.80;99.90
34829;DHT22;21042;47.620;12.188;2023-07-29T12:07:33;24.90;99.90
34829;DHT22;21042;47.620;12.188;2023-07-29T12:10:01;25.10;99.90
34829;DHT22;21042;47.620;12.188;2023-07-29T12:12:30;25.20;99.90
34829;DHT22;21042;47.620;12.188;2023-07-29T12:14:56;25.40;99.90
34829;DHT22;21042;47.620;12.188;2023-07-29T12:17:23;25.70;99.90
34829;DHT22;21042;47.620;12.188;2023-07-29T12:19:53;25.80;99.90
34829;DHT22;21042;47.620;12.188;2023-07-29T12:22:21;25.50;99.90
34829;DHT22;21042;47.620;12.188;2023-07-29T12:24:51;25.60;99.90
34829;DHT22;21042;47.620;12.188;2023-07-29T12:27:21;25.90;99.90
34829;DHT22;21042;47.620;12.188;2023-07-29T12:29:51;26.10;99.90
34829;DHT22;21042;47.620;12.188;2023-07-29T12:32:18;25.90;99.90
34829;DHT22;21042;47.620;12.188;2023-07-29T12:34:45;25.80;99.90
34829;DHT22;21042;47.620;12.188;2023-07-29T12:37:12;25.70;99.90
34829;DHT22;21042;47.620;12.188;2023-07-29T12:39:42;25.40;99.90
34829;DHT22;21042;47.620;12.188;2023-07-29T12:42:09;25.70;99.90
34829;DHT22;21042;47.620;12.188;2023-07-29T12:44:37;25.90;99.90
34829;DHT22;21042;47.620;12.188;2023-07-29T12:47:06;25.90;99.90
34829;DHT22;21042;47.620;12.188;2023-07-29T12:49:33;25.80;99.90
34829;DHT22;21042;47.620;12.188;2023-07-29T12:52:00;26.10;99.90
34829;DHT22;21042;47.620;12.188;2023-07-29T12:54:27;26.50;99.90
34829;DHT22;21042;47.620;12.188;2023-07-29T12:56:54;26.90;99.90
34829;DHT22;21042;47.620;12.188;2023-07-29T12:59:20;27.30;99.90
34829;DHT22;21042;47.620;12.188;2023-07-29T13:01:47;27.40;99.90
34829;DHT22;21042;47.620;12.188;2023-07-29T13:04:14;27.30;99.90
34829;DHT22;21042;47.620;12.188;2023-07-29T13:06:41;27.20;99.90
34829;DHT22;21042;47.620;12.188;2023-07-29T13:09:08;27.10;99.90
34829;DHT22;21042;47.620;12.188;2023-07-29T13:11:35;27.10;99.90
34829;DHT22;21042;47.620;12.188;2023-07-29T13:14:01;27.10;99.90
34829;DHT22;21042;47.620;12.188;2023-07-29T13:16:28;27.30;99.90
34829;DHT22;21042;47.620;12.188;2023-07-29T13:18:56;27.20;99.90
34829;DHT22;21042;47.620;12.188;2023-07-29T13:21:23;27.20;99.90
34829;DHT22;21042;47.620;12.188;2023-07-29T13:23:51;27.40;99.90
34829;DHT22;21042;47.620;12.188;2023-07-29T13:26:18;27.50;99.90
34829;DHT22;21042;47.620;12.188;2023-07-29T13:28:45;27.80;99.90
34829;DHT22;21042;47.620;12.188;2023-07-29T13:31:12;28.10;99.90
34829;DHT22;21042;47.620;12.188;2023-07-29T13:33:39;27.90;99.90
34829;DHT22;21042;47.620;12.188;2023-07-29T13:36:06;28.20;99.90
34829;DHT22;21042;47.620;12.188;2023-07-29T13:38:35;28.10;99.90
34829;DHT22;21042;47.620;12.188;2023-07-29T13:41:01;28.40;99.90
34829;DHT22;21042;47.620;12.188;2023-07-29T13:43:28;28.50;99.90
34829;DHT22;21042;47.620;12.188;2023-07-29T13:45:55;28.70;99.90
34829;DHT22;21042;47.620;12.188;2023-07-29T13:48:22;28.80;99.90
34829;DHT22;21042;47.620;12.188;2023-07-29T13:50:49;28.00;99.90
34829;DHT22;21042;47.620;12.188;2023-07-29T13:53:17;27.20;99.90
34829;DHT22;21042;47.620;12.188;2023-07-29T13:55:44;26.70;99.90
34829;DHT22;21042;47.620;12.188;2023-07-29T13:58:11;26.30;99.90
34829;DHT22;21042;47.620;12.188;2023-07-29T14:00:37;26.00;99.90
34829;DHT22;21042;47.620;12.188;2023-07-29T14:03:04;25.70;99.90
34829;DHT22;21042;47.620;12.188;2023-07-29T14:05:31;25.50;99.90
34829;DHT22;21042;47.620;12.188;2023-07-29T14:07:58;25.40;99.90
34829;DHT22;21042;47.620;12.188;2023-07-29T14:10:24;25.40;99.90
34829;DHT22;21042;47.620;12.188;2023-07-29T14:12:51;25.50;99.90
34829;DHT22;21042;47.620;12.188;2023-07-29T14:15:18;25.50;99.90
34829;DHT22;21042;47.620;12.188;2023-07-29T14:17:45;25.60;99.90
34829;DHT22;21042;47.620;12.188;2023-07-29T14:20:13;25.70;99.90
34829;DHT22;21042;47.620;12.188;2023-07-29T14:22:40;25.80;99.90
34829;DHT22;21042;47.620;12.188;2023-07-29T14:25:07;25.80;99.90
34829;DHT22;21042;47.620;12.188;2023-07-29T14:27:34;25.60;99.90
34829;DHT22;21042;47.620;12.188;2023-07-29T14:30:01;25.50;99.90
34829;DHT22;21042;47.620;12.188;2023-07-29T14:32:28;25.60;99.90
34829;DHT22;21042;47.620;12.188;2023-07-29T14:34:55;25.50;99.90
34829;DHT22;21042;47.620;12.188;2023-07-29T14:37:22;25.40;99.90
34829;DHT22;21042;47.620;12.188;2023-07-29T14:39:49;25.30;99.90
34829;DHT22;21042;47.620;12.188;2023-07-29T14:42:15;25.20;99.90
34829;DHT22;21042;47.620;12.188;2023-07-29T14:44:42;25.20;99.90
34829;DHT22;21042;47.620;12.188;2023-07-29T14:47:09;25.10;99.90
34829;DHT22;21042;47.620;12.188;2023-07-29T14:49:36;25.10;99.90
34829;DHT22;21042;47.620;12.188;2023-07-29T14:52:03;25.00;99.90
34829;DHT22;21042;47.620;12.188;2023-07-29T14:54:30;24.80;99.90
34829;DHT22;21042;47.620;12.188;2023-07-29T14:56:56;24.40;99.90
34829;DHT22;21042;47.620;12.188;2023-07-29T14:59:23;23.90;99.90
34829;DHT22;21042;47.620;12.188;2023-07-29T15:01:50;23.40;99.90
34829;DHT22;21042;47.620;12.188;2023-07-29T15:04:17;23.00;99.90
34829;DHT22;21042;47.620;12.188;2023-07-29T15:06:44;22.80;99.90
34829;DHT22;21042;47.620;12.188;2023-07-29T15:09:10;22.50;99.90
34829;DHT22;21042;47.620;12.188;2023-07-29T15:11:37;22.30;99.90
34829;DHT22;21042;47.620;12.188;2023-07-29T15:14:04;22.00;99.90
34829;DHT22;21042;47.620;12.188;2023-07-29T15:16:31;21.90;99.90
34829;DHT22;21042;47.620;12.188;2023-07-29T15:18:58;21.70;99.90
34829;DHT22;21042;47.620;12.188;2023-07-29T15:21:25;21.50;99.90
34829;DHT22;21042;47.620;12.188;2023-07-29T15:23:52;21.40;99.90
34829;DHT22;21042;47.620;12.188;2023-07-29T15:26:18;21.30;99.90
34829;DHT22;21042;47.620;12.188;2023-07-29T15:28:45;21.10;99.90
34829;DHT22;21042;47.620;12.188;2023-07-29T15:31:13;21.00;99.90
34829;DHT22;21042;47.620;12.188;2023-07-29T15:33:40;20.90;99.90
34829;DHT22;21042;47.620;12.188;2023-07-29T15:36:07;20.80;99.90